Latest Weather Observations for Coondewanna

IDW60801

Issued at 11:04 am WST Sunday 21 December 2014 (issued every 30 minutes, with the page automatically refreshed every 10 minutes)

About weather observations | Map of weather stations | Latest weather observations for WA | Other Formats
Station Details ID: 505051 Name: COONDEWANNA Lat: -22.96 Lon: 118.81 Height: 697.63 m
Data from the previous 72 hours. | See also: Recent months for locations in Western Australia
Date/Time
WST
Temp
°C
App
Temp
°C
Dew
Point
Rel
Hum
%
Delta-T
°C
Wind Press
QNH
hPa
Press
MSL
hPa
Rain
since 9 am
mm
Dir
 
Spd
km/h
Gust
km/h
Spd
kts
Gust
kts
21/11:00am 36.2 33.9 8.9 19 16.1 E 11 19 6 10 1011.4 1005.3 0.0
21/10:30am 35.8 34.3 9.3 20 15.7 SW 7 11 4 6 1011.7 1005.6 0.0
21/10:00am 34.9 33.4 9.3 21 15.1 S 7 15 4 8 1011.9 1005.8 0.0
21/09:30am 34.6 33.5 9.8 22 14.7 WSW 6 9 3 5 1011.9 1005.8 0.0
21/09:00am 33.5 31.7 9.5 23 14.1 SSE 9 13 5 7 1012.2 1006.0 9.6
21/08:30am 33.6 32.4 9.6 23 14.1 WSW 6 11 3 6 1012.1 1005.9 9.6
21/08:00am 33.6 32.1 13.1 29 12.7 WSW 13 22 7 12 1011.8 1005.7 9.6
21/07:30am 35.0 34.8 15.8 31 12.4 W 11 15 6 8 1011.8 1005.7 9.6
21/07:00am 37.4 42.9 23.4 44 10.0 CALM 0 0 0 0 1011.9 1005.8 9.6
21/06:30am 34.3 38.1 22.4 50 8.4 NNW 6 7 3 4 1011.8 1005.7 9.6
21/06:00am 29.7 33.3 20.5 57 6.3 NNW 2 9 1 5 1011.6 1005.5 9.6
21/05:53am 29.9 34.4 21.6 61 5.7 CALM 0 6 0 3 1011.4 1005.3 9.6
21/05:30am 24.5 26.7 19.3 73 3.4 NNW 6 6 3 3 1011.2 1005.0 9.6
21/05:00am 23.7 24.6 16.0 62 4.8 NNW 6 7 3 4 1011.1 1004.9 9.6
21/04:30am 23.7 24.6 16.7 65 4.4 NNW 7 11 4 6 1011.0 1004.8 9.6
21/04:00am 24.3 25.1 16.3 61 5.0 NNW 7 11 4 6 1010.9 1004.7 9.6
21/03:30am 25.2 25.5 16.1 57 5.7 N 9 13 5 7 1010.9 1004.7 9.6
21/03:00am 25.6 25.1 15.9 55 6.1 N 13 17 7 9 1010.8 1004.6 9.6
21/02:30am 26.0 25.9 16.0 54 6.3 N 11 15 6 8 1010.9 1004.7 9.6
21/02:00am 26.7 26.1 15.7 51 6.9 N 13 19 7 10 1011.2 1005.0 9.6
21/01:30am 26.8 27.2 16.4 53 6.6 N 9 17 5 9 1011.2 1005.0 9.6
21/01:00am 27.4 26.8 16.7 52 6.8 N 15 22 8 12 1011.2 1005.0 9.6
21/12:30am 27.6 26.6 16.6 51 7.0 NNE 17 22 9 12 1011.2 1005.0 9.6
21/12:00am 27.1 27.0 17.8 56 6.0 ENE 15 20 8 11 1011.4 1005.3 9.6
 
Date/Time
WST
Temp
°C
App
Temp
°C
Dew
Point
Rel
Hum
%
Delta-T
°C
Wind Press
QNH
hPa
Press
MSL
hPa
Rain
since 9 am
mm
Dir
 
Spd
km/h
Gust
km/h
Spd
kts
Gust
kts
20/11:30pm 27.7 26.6 17.2 52 6.8 NE 19 26 10 14 1011.4 1005.3 9.6
20/11:00pm 29.6 27.3 15.7 43 8.8 N 22 33 12 18 1011.5 1005.4 9.6
20/10:30pm 28.4 29.3 17.6 52 7.0 NE 9 13 5 7 1011.7 1005.6 9.6
20/10:00pm 27.9 28.7 19.1 58 5.8 ENE 13 15 7 8 1011.5 1005.4 9.6
20/09:30pm 28.8 29.9 18.0 52 7.1 ENE 9 15 5 8 1011.5 1005.4 9.6
20/09:00pm 28.6 31.3 20.6 62 5.4 E 7 9 4 5 1010.8 1004.6 9.6
20/08:30pm 29.3 29.9 17.8 50 7.5 E 11 15 6 8 1010.4 1004.3 9.6
20/08:00pm 29.7 30.9 18.2 50 7.6 NNE 9 13 5 7 1010.0 1003.8 9.6
20/07:30pm 30.6 29.0 13.8 35 10.4 NNW 15 26 8 14 1009.6 1003.4 9.6
20/07:00pm 30.3 31.1 17.4 46 8.4 N 9 15 5 8 1009.5 1003.3 9.6
20/06:30pm 28.7 33.9 26.9 90 1.3 NE 13 19 7 10 1009.4 1003.2 9.6
20/06:06pm 28.0 31.4 26.2 90 1.3 NE 20 30 11 16 1008.9 1002.8 9.6
20/06:00pm 25.4 25.9 24.0 92 1.0 ENE 28 56 15 30 1008.9 1002.8 9.6
20/05:54pm 24.5 21.4 22.9 91 1.1 E 44 78 24 42 1008.7 1002.5 9.6
20/05:52pm 25.0 21.6 23.1 89 1.3 ESE 46 78 25 42 1008.6 1002.4 9.6
20/05:46pm 21.9 17.0 19.1 84 1.8 ESE 43 78 23 42 1009.1 1002.9 8.2
20/05:45pm 23.1 18.8 19.5 80 2.4 ESE 41 78 22 42 1008.6 1002.4 6.6
20/05:32pm 30.0 27.4 17.8 48 8.0 SE 28 48 15 26 1008.5 1002.3 2.4
20/05:30pm 31.6 28.9 15.5 37 10.3 SE 24 44 13 24 1008.3 1002.1 1.4
20/05:17pm 35.3 33.7 15.1 30 12.9 SW 17 65 9 35 1007.8 1001.6 0.0
20/05:00pm 38.1 34.8 9.6 18 17.1 S 17 24 9 13 1007.8 1001.6 0.0
20/04:30pm 38.8 37.4 9.4 17 17.6 WNW 7 15 4 8 1008.0 1001.8 0.0
20/04:00pm 38.0 34.7 9.6 18 17.0 WNW 17 24 9 13 1008.2 1002.0 0.0
20/03:30pm 38.9 36.7 9.4 17 17.7 NE 11 22 6 12 1008.5 1002.3 0.0
20/03:00pm 37.6 36.1 9.2 18 16.9 WNW 7 11 4 6 1009.2 1003.0 0.0
20/02:30pm 38.5 35.5 9.1 17 17.5 NW 15 24 8 13 1009.7 1003.5 0.0
20/02:00pm 38.1 36.7 9.6 18 17.1 NNE 7 13 4 7 1010.2 1004.1 0.0
20/01:30pm 37.5 35.5 10.0 19 16.5 NNE 11 17 6 9 1010.7 1004.5 0.0
20/01:00pm 37.5 35.5 10.0 19 16.5 NNW 11 20 6 11 1011.4 1005.3 0.0
20/12:30pm 37.0 35.2 9.6 19 16.3 SW 9 13 5 7 1011.9 1005.8 0.0
20/12:00pm 36.4 34.3 9.8 20 15.9 W 11 24 6 13 1012.3 1006.1 0.0
20/11:30am 36.1 33.8 10.3 21 15.5 W 13 24 7 13 1012.8 1006.7 0.0
20/11:00am 35.7 34.4 10.0 21 15.3 E 7 15 4 8 1013.1 1007.0 0.0
20/10:30am 34.6 31.9 10.4 23 14.5 SW 15 26 8 14 1013.5 1007.4 0.0
20/10:00am 35.4 32.3 10.4 22 15.0 SSW 17 26 9 14 1014.0 1007.8 0.0
20/09:30am 33.6 31.4 10.9 25 13.6 SW 13 20 7 11 1014.1 1008.0 0.0
20/09:00am 33.7 30.8 10.9 25 13.7 SW 17 35 9 19 1014.3 1008.2 0.0
20/08:30am 32.6 29.4 11.2 27 12.8 WSW 19 26 10 14 1014.3 1008.2 0.0
20/08:00am 31.2 28.9 11.6 30 11.8 WSW 15 22 8 12 1014.3 1008.2 0.0
20/07:30am 30.6 27.8 11.5 30 11.4 WSW 17 24 9 13 1014.3 1008.2 0.0
20/07:00am 29.7 27.0 11.7 33 10.8 W 17 20 9 11 1014.2 1008.1 0.0
20/06:30am 28.7 28.2 12.2 36 9.9 NNW 6 11 3 6 1014.0 1007.8 0.0
20/06:00am 26.9 26.4 12.5 40 8.6 NNW 7 9 4 5 1013.5 1007.4 0.0
20/05:30am 25.4 24.8 12.3 44 7.8 NW 7 9 4 5 1013.4 1007.3 0.0
20/05:00am 25.9 26.3 12.4 43 8.0 NW 2 7 1 4 1013.2 1007.1 0.0
20/04:30am 26.0 25.1 12.5 43 8.0 NNW 9 11 5 6 1013.0 1006.9 0.0
20/04:00am 26.6 25.6 12.3 41 8.5 NW 9 13 5 7 1013.1 1007.0 0.0
20/03:30am 27.0 26.4 12.3 40 8.8 NW 7 11 4 6 1013.2 1007.1 0.0
20/03:00am 27.7 25.1 12.1 38 9.3 NW 17 22 9 12 1013.0 1006.9 0.0
20/02:30am 28.3 25.8 12.2 37 9.6 WNW 17 24 9 13 1012.9 1006.8 0.0
20/02:00am 28.3 26.6 12.6 38 9.5 WNW 13 19 7 10 1013.0 1006.9 0.0
20/01:30am 28.8 27.2 12.7 37 9.7 NW 13 19 7 10 1013.1 1007.0 0.0
20/01:00am 28.9 27.3 12.8 37 9.8 WNW 13 19 7 10 1013.4 1007.3 0.0
20/12:30am 29.0 28.0 12.4 36 10.0 NW 9 11 5 6 1013.8 1007.6 0.0
20/12:00am 29.7 28.8 12.6 35 10.4 NNW 9 11 5 6 1014.1 1008.0 0.0
 
Date/Time
WST
Temp
°C
App
Temp
°C
Dew
Point
Rel
Hum
%
Delta-T
°C
Wind Press
QNH
hPa
Press
MSL
hPa
Rain
since 9 am
mm
Dir
 
Spd
km/h
Gust
km/h
Spd
kts
Gust
kts
19/11:30pm 30.2 28.9 12.6 34 10.7 WNW 11 17 6 9 1014.6 1008.5 0.0
19/11:00pm 30.8 28.4 12.7 33 11.0 NNW 17 24 9 13 1014.4 1008.3 0.0
19/10:30pm 31.2 28.9 13.0 33 11.2 NNW 17 24 9 13 1014.5 1008.4 0.0
19/10:00pm 31.8 29.4 12.6 31 11.7 NNW 17 26 9 14 1014.4 1008.3 0.0
19/09:30pm 32.5 29.5 12.7 30 12.1 NNW 20 32 11 17 1014.0 1007.8 0.0
19/09:00pm 33.4 31.5 11.9 27 13.1 NNW 13 20 7 11 1014.0 1007.8 0.0
19/08:30pm 34.3 30.6 11.4 25 13.9 NNW 22 32 12 17 1013.0 1006.9 0.0
19/08:00pm 34.9 31.1 11.3 24 14.3 N 22 35 12 19 1012.3 1006.1 0.0
19/07:30pm 35.4 31.0 11.7 23 14.5 N 26 37 14 20 1011.4 1005.3 0.0
19/07:00pm 35.8 31.3 11.4 23 14.9 N 26 39 14 21 1011.0 1004.8 0.0
19/06:30pm 36.4 32.4 10.6 21 15.6 N 22 35 12 19 1010.8 1004.6 0.0
19/06:00pm 37.1 31.6 10.4 20 16.1 N 30 39 16 21 1010.6 1004.4 0.0
19/05:30pm 38.0 33.4 11.1 20 16.5 N 26 35 14 19 1010.2 1004.1 0.0
19/05:00pm 38.8 34.6 11.0 19 17.1 N 24 35 13 19 1010.3 1004.2 0.0
19/04:30pm 39.4 36.1 11.5 19 17.2 N 20 33 11 18 1010.3 1004.2 0.0
19/04:00pm 39.6 36.6 12.4 20 17.1 NNW 20 32 11 17 1010.3 1004.2 0.0
19/03:30pm 38.6 34.9 11.6 20 16.7 N 22 33 12 18 1010.6 1004.4 0.0
19/03:00pm 39.2 36.5 12.9 21 16.6 N 19 35 10 19 1011.0 1004.8 0.0
19/02:30pm 38.8 35.8 12.5 21 16.4 N 20 37 11 20 1011.5 1005.4 0.0
19/02:00pm 38.9 35.9 12.6 21 16.5 NNW 20 35 11 19 1011.8 1005.7 0.0
19/01:30pm 37.6 34.7 12.9 23 15.5 NNE 20 32 11 17 1012.1 1005.9 0.0
19/01:00pm 37.2 34.0 13.2 23 15.1 N 22 33 12 18 1012.5 1006.3 0.0
19/12:30pm 37.7 34.3 13.7 24 15.2 NNE 24 43 13 23 1012.7 1006.5 0.0
19/12:00pm 37.9 34.7 13.2 23 15.6 NNE 22 33 12 18 1012.9 1006.8 0.0
19/11:30am 37.7 35.0 13.0 23 15.5 NNE 19 30 10 16 1013.3 1007.2 0.0
19/11:00am 36.4 34.2 13.2 25 14.5 NNE 17 26 9 14 1013.4 1007.3 0.0
19/10:30am 36.7 34.3 11.5 22 15.4 N 15 24 8 13 1013.7 1007.5 0.0
19/10:00am 35.3 33.0 11.7 24 14.4 NNW 15 20 8 11 1013.8 1007.6 0.0
19/09:30am 33.7 31.9 13.2 29 12.7 N 15 22 8 12 1013.9 1007.7 0.0
19/09:00am 33.3 32.1 12.9 29 12.6 N 11 19 6 10 1014.0 1007.8 0.0
19/08:30am 32.2 31.5 14.3 33 11.2 NNE 11 20 6 11 1014.0 1007.8 0.0
19/08:00am 30.2 30.2 15.1 40 9.5 N 9 15 5 8 1014.0 1007.8 0.0
19/07:30am 29.1 28.7 15.2 42 8.7 N 11 15 6 8 1013.8 1007.6 0.0
19/07:00am 27.6 27.2 16.2 49 7.2 N 13 17 7 9 1013.3 1007.2 0.0
19/06:30am 26.3 26.0 16.5 54 6.2 N 13 19 7 10 1013.0 1006.9 0.0
19/06:00am 25.8 25.1 16.4 56 6.0 N 15 20 8 11 1012.6 1006.4 0.0
19/05:30am 25.5 24.5 15.5 54 6.2 N 15 22 8 12 1012.3 1006.1 0.0
19/05:00am 25.8 25.2 14.6 50 6.9 NNE 11 15 6 8 1011.8 1005.7 0.0
19/04:30am 26.2 25.2 14.6 48 7.2 NNE 13 17 7 9 1011.4 1005.3 0.0
19/04:00am 26.5 25.9 14.6 48 7.4 N 11 20 6 11 1011.0 1004.8 0.0
19/03:30am 26.7 24.5 14.8 48 7.4 N 20 28 11 15 1010.7 1004.5 0.0
19/03:00am 27.0 25.4 15.1 48 7.4 N 17 26 9 14 1010.6 1004.4 0.0
19/02:30am 27.4 25.6 15.4 48 7.5 N 19 28 10 15 1010.3 1004.2 0.0
19/02:00am 27.8 26.3 16.4 50 7.3 NNE 19 28 10 15 1010.8 1004.6 0.0
19/01:30am 28.4 27.1 17.3 51 7.2 N 20 28 11 15 1010.6 1004.4 0.0
19/01:00am 29.1 29.0 17.9 50 7.3 NE 15 22 8 12 1010.8 1004.6 0.0
19/12:30am 29.8 29.6 17.6 48 8.0 N 15 24 8 13 1011.0 1004.8 0.0
19/12:00am 30.4 29.9 17.8 46 8.3 N 17 24 9 13 1011.2 1005.0 0.0
 
Date/Time
WST
Temp
°C
App
Temp
°C
Dew
Point
Rel
Hum
%
Delta-T
°C
Wind Press
QNH
hPa
Press
MSL
hPa
Rain
since 9 am
mm
Dir
 
Spd
km/h
Gust
km/h
Spd
kts
Gust
kts
18/11:30pm 30.9 31.6 18.9 48 8.0 N 13 19 7 10 1011.4 1005.3 0.0
18/11:00pm 31.5 31.6 19.2 48 8.3 N 17 22 9 12 1011.6 1005.5 0.0
18/10:30pm 32.0 32.3 19.6 47 8.4 N 17 26 9 14 1011.7 1005.6 0.0
18/10:00pm 32.8 32.0 19.3 45 9.1 N 22 35 12 19 1011.5 1005.4 0.0
18/09:30pm 34.3 32.6 17.1 36 11.3 N 22 35 12 19 1011.1 1004.9 0.0
18/09:20pm 34.9 32.2 14.7 29 12.9 N 22 39 12 21 1010.8 1004.6 0.0
18/09:00pm 35.6 34.3 12.5 24 14.3 N 11 19 6 10 1010.4 1004.3 0.0
18/08:30pm 36.5 34.7 12.0 23 15.1 N 13 17 7 9 1010.2 1004.1 0.0
18/08:00pm 36.9 34.6 11.7 22 15.5 N 15 24 8 13 1009.8 1003.6 0.0
18/07:30pm 37.2 35.3 8.9 18 16.7 NNE 9 13 5 7 1009.5 1003.3 0.0
18/07:00pm 37.8 36.2 8.6 17 17.2 NNE 7 9 4 5 1009.1 1002.9 0.0
18/06:30pm 38.3 36.2 8.1 16 17.7 NNE 9 13 5 7 1008.7 1002.5 0.0
18/06:00pm 39.0 36.1 6.7 14 18.7 NE 11 17 6 9 1008.3 1002.1 0.0
18/05:30pm 39.5 35.2 7.1 14 18.8 ENE 19 26 10 14 1008.1 1001.9 0.0
18/05:00pm 40.1 36.6 5.3 12 19.8 ESE 13 22 7 12 1008.0 1001.8 0.0
18/04:30pm 40.2 37.6 4.1 11 20.1 NNE 7 9 4 5 1008.1 1001.9 0.0
18/04:00pm 40.5 37.5 4.3 11 20.3 NW 9 15 5 8 1008.2 1002.0 0.0
18/03:30pm 41.4 37.6 3.7 10 21.0 WSW 13 24 7 13 1008.3 1002.1 0.0
18/03:00pm 40.9 35.8 3.3 10 20.8 N 19 26 10 14 1008.6 1002.4 0.0
18/02:30pm 41.0 36.3 3.4 10 20.8 N 17 26 9 14 1008.7 1002.5 0.0
18/02:00pm 40.3 36.3 2.8 10 20.6 N 13 26 7 14 1008.9 1002.8 0.0
18/01:30pm 40.3 36.6 4.2 11 20.2 NE 13 20 7 11 1009.3 1003.1 0.0
18/01:00pm 40.1 36.5 2.7 10 20.5 WSW 11 20 6 11 1009.6 1003.4 0.0
18/12:30pm 39.9 36.5 3.9 11 20.0 E 11 28 6 15 1010.0 1003.8 0.0
18/12:00pm 39.0 34.7 3.2 11 19.6 SSW 15 26 8 14 1010.3 1004.2 0.0
18/11:30am 39.2 36.1 3.4 11 19.7 SW 9 20 5 11 1010.7 1004.5 0.0

Other Formats:

Comma delimited format used in spreadsheet applications
http://www.bom.gov.au/fwo/IDW60801/IDW60801.99312.axf

JavaScript Object Notation format (JSON) in row-major order
http://www.bom.gov.au/fwo/IDW60801/IDW60801.99312.json